Latest Coastal Weather Observations for Geelong Racecourse

IDV60701

Issued at 8:11 am EST Sunday 2 August 2015 (issued every 10 minutes, with the page automatically refreshed every 10 minutes)

About coastal observations | Map of coastal stations | Coastal observations for VIC | Marine services | Other Formats
Station Details ID: 087184 Name: GEELONG RACECOURSE Lat: -38.17 Lon: 144.38 Height: 12.9 m
Data from the previous 72 hours. | See also: Recent months at Geelong Racecourse
Date/Time
EST
Temp

°C
Wind Pressure Rain
since 9am
mm
Weather Cloud Vis
km
Sea
Height
m
Swell
Dir
 
Speed
knots
Gust
knots
hPa Trend Height
m
Period
s
Dir
02/08:00am 6.8 NW 8 13 1012.1 - 0.0 - - - - - - -
02/07:30am 6.8 NW 5 12 1012.2 - 0.0 - - - - - - -
02/07:00am 6.6 N 4 9 1012.4 - 0.0 - - - - - - -
02/06:30am 6.9 N 3 5 1012.5 - 0.0 - - - - - - -
02/06:00am 6.7 N 3 6 1012.6 - 0.0 - - - - - - -
02/05:30am 6.6 NNW 3 5 1012.7 - 0.0 - - - - - - -
02/05:00am 6.6 NNW 3 5 1012.8 - 0.0 - - - - - - -
02/04:30am 6.3 NW 3 4 1012.8 - 0.0 - - - - - - -
02/04:00am 6.9 N 4 5 1013.0 - 0.0 - - - - - - -
02/03:30am 6.9 NNW 4 7 1013.3 - 0.0 - - - - - - -
02/03:00am 6.9 NNW 4 5 1014.2 - 0.0 - - - - - - -
02/02:30am 6.9 NNW 4 5 1014.4 - 0.0 - - - - - - -
02/02:00am 7.0 NNW 4 5 1014.5 - 0.0 - - - - - - -
02/01:30am 7.1 NNW 3 5 1014.8 - 0.0 - - - - - - -
02/01:00am 6.9 N 2 3 1015.1 - 0.0 - - - - - - -
02/12:30am 7.1 NNW 4 7 1015.4 - 0.0 - - - - - - -
02/12:00am 7.2 NNW 4 7 1015.8 - 0.0 - - - - - - -
 
Date/Time
EST
Temp

°C
Wind Pressure Rain
since 9am
mm
Weather Cloud Vis
km
Sea
Height
m
Swell
Dir
 
Speed
knots
Gust
knots
hPa Trend Height
m
Period
s
Dir
01/11:30pm 7.0 NNW 4 5 1015.8 - 0.0 - - - - - - -
01/11:00pm 7.0 NW 4 5 1015.8 - 0.0 - - - - - - -
01/10:30pm 7.0 NW 3 4 1015.9 - 0.0 - - - - - - -
01/10:00pm 7.4 NW 3 5 1016.0 - 0.0 - - - - - - -
01/09:30pm 7.7 NNW 4 5 1016.2 - 0.0 - - - - - - -
01/09:00pm 7.5 NNW 4 5 1016.0 - 0.0 - - - - - - -
01/08:30pm 7.6 NW 2 3 1015.8 - 0.0 - - - - - - -
01/08:00pm 7.9 NW 2 3 1015.8 - 0.0 - - - - - - -
01/07:30pm 8.3 NW 2 4 1015.8 - 0.0 - - - - - - -
01/07:00pm 8.7 NW 4 5 1015.8 - 0.0 - - - - - - -
01/06:30pm 8.9 NW 3 4 1015.7 - 0.0 - - - - - - -
01/06:00pm 9.6 NW 4 6 1015.3 - 0.0 - - - - - - -
01/05:30pm 10.0 WNW 4 5 1015.1 - 0.0 - - - - - - -
01/05:00pm 10.6 WNW 5 7 1014.7 - 0.0 - - - - - - -
01/04:30pm 10.9 WNW 5 7 1014.3 - 0.0 - - - - - - -
01/04:00pm 11.2 NW 5 7 1014.2 - 0.0 - - - - - - -
01/03:30pm 11.4 WNW 5 7 1014.3 - 0.0 - - - - - - -
01/03:00pm 11.3 WNW 7 10 1014.1 - 0.0 - - - - - - -
01/02:30pm 11.4 W 6 9 1013.9 - 0.0 - - - - - - -
01/02:00pm 11.2 WSW 8 12 1014.0 - 0.0 - - - - - - -
01/01:30pm 11.3 WSW 9 12 1014.1 - 0.0 - - - - - - -
01/01:00pm 11.2 WSW 9 13 1014.2 - 0.0 - - - - - - -
01/12:30pm 11.1 WSW 10 16 1014.2 - 0.0 - - - - - - -
01/12:00pm 10.9 WSW 6 10 1014.2 - 0.0 - - - - - - -
01/11:30am 10.8 W 6 11 1014.6 - 0.0 - - - - - - -
01/11:00am 10.5 W 5 10 1014.5 - 0.0 - - - - - - -
01/10:30am 9.9 W 6 9 1014.3 - 0.0 - - - - - - -
01/10:00am 9.7 W 6 9 1013.8 - 0.0 - - - - - - -
01/09:30am 9.5 W 7 12 1013.3 - 0.0 - - - - - - -
01/09:00am 9.4 W 7 11 1012.5 - 0.0 - - - - - - -
01/08:30am 9.3 W 11 17 1012.0 - 0.0 - - - - - - -
01/08:00am 9.6 WSW 9 12 1011.3 - 0.0 - - - - - - -
01/07:30am 9.9 W 13 20 1010.3 - 0.0 - - - - - - -
01/07:00am 10.7 WNW 14 21 1009.3 - 0.0 - - - - - - -
01/06:30am 11.4 NW 12 20 1007.9 - 0.0 - - - - - - -
01/06:00am 12.5 NW 15 22 1006.8 - 0.0 - - - - - - -
01/05:30am 13.2 NNW 17 31 1006.2 - 0.0 - - - - - - -
01/05:00am 13.6 NNW 19 29 1006.0 - 0.0 - - - - - - -
01/04:35am 14.0 NNW 15 26 1006.2 - 0.0 - - - - - - -
01/04:30am 13.9 NNW 14 20 1006.3 - 0.0 - - - - - - -
01/04:00am 13.2 NNW 11 19 1006.6 - 0.0 - - - - - - -
01/03:30am 12.9 N 11 18 1007.2 - 0.0 - - - - - - -
01/03:00am 12.3 N 11 16 1007.7 - 0.0 - - - - - - -
01/02:30am 11.6 N 9 13 1008.6 - 0.0 - - - - - - -
01/02:00am 11.4 N 9 13 1009.2 - 0.0 - - - - - - -
01/01:30am 10.8 N 8 12 1009.7 - 0.0 - - - - - - -
01/01:00am 9.5 NNE 7 10 1010.3 - 0.0 - - - - - - -
01/12:30am 9.2 NNE 9 12 1010.8 - 0.0 - - - - - - -
01/12:00am 9.8 NNE 9 14 1011.4 - 0.0 - - - - - - -
 
Date/Time
EST
Temp

°C
Wind Pressure Rain
since 9am
mm
Weather Cloud Vis
km
Sea
Height
m
Swell
Dir
 
Speed
knots
Gust
knots
hPa Trend Height
m
Period
s
Dir
31/11:30pm 10.4 N 12 19 1011.8 - 0.0 - - - - - - -
31/11:00pm 10.1 N 9 13 1012.8 - 0.0 - - - - - - -
31/10:30pm 9.6 N 7 12 1013.1 - 0.0 - - - - - - -
31/10:00pm 8.5 NNE 5 8 1013.6 - 0.0 - - - - - - -
31/09:30pm 8.1 NNE 5 7 1014.4 - 0.0 - - - - - - -
31/09:00pm 8.6 N 4 5 1014.9 - 0.0 - - - - - - -
31/08:30pm 9.3 N 5 7 1015.4 - 0.0 - - - - - - -
31/08:00pm 9.6 NNW 9 13 1015.6 - 0.0 - - - - - - -
31/07:30pm 10.0 N 9 14 1014.8 - 0.0 - - - - - - -
31/07:00pm 10.0 NNW 9 11 1014.9 - 0.0 - - - - - - -
31/06:30pm 10.2 NNW 12 19 1015.0 - 0.0 - - - - - - -
31/06:00pm 10.0 NNW 7 11 1015.5 - 0.0 - - - - - - -
31/05:30pm 10.7 NNW 8 13 1015.2 - 0.0 - - - - - - -
31/05:00pm 11.5 NNW 10 15 1015.1 - 0.0 - - - - - - -
31/04:30pm 12.1 NNW 10 17 1015.2 - 0.0 - - - - - - -
31/04:00pm 12.5 NW 7 11 1015.3 - 0.0 - - - - - - -
31/03:30pm 12.6 NW 7 12 1016.0 - 0.0 - - - - - - -
31/03:00pm 11.9 NNW 8 13 1016.5 - 0.0 - - - - - - -
31/02:30pm 12.1 NNW 8 13 1017.0 - 0.0 - - - - - - -
31/02:00pm 11.9 NW 6 9 1017.4 - 0.0 - - - - - - -
31/01:30pm 11.6 NW 9 12 1017.9 - 0.0 - - - - - - -
31/01:00pm 11.5 NW 9 13 1018.5 - 0.0 - - - - - - -
31/12:30pm 11.1 NW 9 15 1019.4 - 0.0 - - - - - - -
31/12:00pm 10.4 WNW 9 13 1020.0 - 0.0 - - - - - - -
31/11:30am 10.8 NW 6 10 1020.7 - 0.0 - - - - - - -
31/11:00am 10.0 NW 8 11 1021.2 - 0.0 - - - - - - -
31/10:30am 9.2 WNW 7 10 1021.3 - 0.0 - - - - - - -
31/10:00am 8.1 WNW 7 11 1021.2 - 0.0 - - - - - - -
31/09:30am 6.9 WNW 8 12 1020.9 - 0.0 - - - - - - -
31/09:00am 6.1 WNW 6 11 1021.0 - 0.0 - - - - - - -
31/08:30am 5.2 NW 4 7 1020.8 - 0.0 - - - - - - -
31/08:00am 4.4 WNW 5 6 1020.8 - 0.0 - - - - - - -
31/07:30am 4.0 WNW 4 7 1020.5 - 0.0 - - - - - - -
31/07:00am 4.1 WNW 4 6 1020.2 - 0.0 - - - - - - -
31/06:30am 4.3 WNW 4 7 1019.9 - 0.0 - - - - - - -
31/06:00am 4.3 WNW 4 6 1019.8 - 0.0 - - - - - - -
31/05:30am 4.3 NW 5 8 1019.5 - 0.0 - - - - - - -
31/05:00am 4.9 NW 5 8 1019.5 - 0.0 - - - - - - -
31/04:30am 5.1 WNW 5 8 1019.1 - 0.0 - - - - - - -
31/04:00am 5.4 WNW 7 10 1018.9 - 0.0 - - - - - - -
31/03:30am 5.4 WNW 5 7 1018.9 - 0.0 - - - - - - -
31/03:00am 5.5 WNW 5 7 1018.9 - 0.0 - - - - - - -
31/02:30am 5.7 WNW 5 7 1019.0 - 0.0 - - - - - - -
31/02:00am 5.8 NW 4 6 1019.0 - 0.0 - - - - - - -
31/01:30am 6.1 WNW 5 7 1018.6 - 0.0 - - - - - - -
31/01:00am 6.7 WNW 5 8 1018.7 - 0.0 - - - - - - -
31/12:30am 7.0 W 6 9 1018.5 - 0.0 - - - - - - -
31/12:00am 7.3 WNW 6 10 1018.2 - 0.0 - - - - - - -
 
Date/Time
EST
Temp

°C
Wind Pressure Rain
since 9am
mm
Weather Cloud Vis
km
Sea
Height
m
Swell
Dir
 
Speed
knots
Gust
knots
hPa Trend Height
m
Period
s
Dir
30/11:30pm 7.7 WNW 7 10 1017.9 - 0.0 - - - - - - -
30/11:00pm 7.8 WNW 6 9 1017.9 - 0.0 - - - - - - -
30/10:30pm 8.3 WNW 6 9 1017.6 - 0.0 - - - - - - -
30/10:00pm 8.6 WNW 7 11 1017.3 - 0.0 - - - - - - -
30/09:30pm 9.4 W 8 15 1017.1 - 0.0 - - - - - - -
30/09:00pm 9.6 W 7 12 1016.6 - 0.0 - - - - - - -
30/08:30pm 9.8 W 11 17 1015.7 - 0.0 - - - - - - -
30/08:07pm 10.0 WNW 15 25 1015.1 - 0.0 - - - - - - -
30/08:00pm 10.0 WNW 13 19 1014.9 - 0.0 - - - - - - -
30/07:35pm 11.2 NW 15 26 1013.9 - 0.0 - - - - - - -
30/07:30pm 11.2 NW 14 20 1013.8 - 0.0 - - - - - - -
30/07:12pm 11.4 NNW 15 25 1013.1 - 0.0 - - - - - - -
30/07:00pm 11.5 NNW 14 19 1012.6 - 0.0 - - - - - - -
30/06:30pm 11.5 NNW 16 25 1012.2 - 0.0 - - - - - - -
30/06:00pm 11.5 NNW 13 21 1011.7 - 0.0 - - - - - - -
30/05:30pm 11.3 NNW 14 21 1011.7 - 0.0 - - - - - - -
30/05:00pm 11.5 NNW 14 20 1012.0 - 0.0 - - - - - - -
30/04:35pm 12.1 NNW 15 25 1012.1 - 0.0 - - - - - - -
30/04:30pm 12.6 NNW 13 20 1012.0 - 0.0 - - - - - - -
30/04:00pm 12.2 N 10 14 1011.7 - 0.0 - - - - - - -
30/03:30pm 11.7 N 9 15 1011.9 - 0.0 - - - - - - -
30/03:00pm 11.7 N 11 18 1012.4 - 0.0 - - - - - - -
30/02:30pm 12.1 NNW 11 18 1013.1 - 0.0 - - - - - - -
30/02:00pm 12.3 N 9 13 1013.4 - 0.0 - - - - - - -
30/01:30pm 12.2 N 10 18 1013.7 - 0.0 - - - - - - -
30/01:00pm 11.4 N 12 18 1013.9 - 0.0 - - - - - - -
30/12:30pm 11.9 N 14 19 1014.6 - 0.0 - - - - - - -
30/12:00pm 11.9 N 12 18 1015.9 - 0.0 - - - - - - -
30/11:30am 11.5 N 10 14 1017.4 - 0.0 - - - - - - -
30/11:00am 10.9 N 10 16 1017.9 - 0.0 - - - - - - -
30/10:30am 10.1 N 11 15 1018.3 - 0.0 - - - - - - -
30/10:00am 10.8 N 9 15 1018.7 - 0.0 - - - - - - -
30/09:30am 10.1 N 9 12 1019.0 - 0.0 - - - - - - -
30/09:00am 9.7 N 7 10 1019.2 - 0.0 - - - - - - -
30/08:30am 8.5 NNE 7 11 1019.4 - 0.0 - - - - - - -

Other Formats:

Comma delimited format used in spreadsheet applications
http://www.bom.gov.au/fwo/IDV60701/IDV60701.94857.axf

JavaScript Object Notation format (JSON) in row-major order
http://www.bom.gov.au/fwo/IDV60701/IDV60701.94857.json